Alger, Ohio
Current Conditions -  °F | °C
As of 3:53 PM on Saturday 25 Oct 2014 (Local Time) from KAOH Reporting Station
Clear Clear  
Wind Chill: 23°   Ceiling: Unl
Heat Index: 23°   Visibility: 10mi
Dew Point: 11°   Wind: 14mph
Humidity: 45%   Direction: 280°W
Pressure: 29.85"   Gusts: NA
Location:  40.71°N, 83.84°W
Report Text: KAOH 251953Z AUTO 28012KT 10SM CLR 23/11 A2985 RMK AO2 SLP104 T02330106
Loading
Personal Weather Stations






























Interactive Weather Map
Tropical Storm Tracking
New forecast layout! Learn more

10-Day Weather Forecast

Advertisements
Track Severe Weather on mobile